Time;durP1;ratioP1;P1;durP2;ratioP2;P2;SDS_P1;SDS_P2;PMS_P1;PMS_P2;Temp;Humidity;BMP_temperature;BMP_pressure;BME280_temperature;BME280_humidity;BME280_pressure;Samples;Min_cycle;Max_cycle;Signal;HPM_P1;HPM_P2
2022/11/24 00:00:26;;;;;;;13.10;3.25;;;;;;;;;;7393573;19;20006;-75
2022/11/24 00:02:51;;;;;;;11.82;3.33;;;;;;;;;;7395732;19;20357;-75
2022/11/24 00:05:16;;;;;;;10.95;2.97;;;;;;;;;;7395622;19;20006;-74
2022/11/24 00:07:42;;;;;;;12.90;3.05;;;;;;;;;;7393148;19;19995;-74
2022/11/24 00:10:07;;;;;;;16.60;3.42;;;;;;;;;;7395149;19;20001;-74
2022/11/24 00:12:33;;;;;;;9.40;2.75;;;;;;;;;;7391923;19;20070;-75
2022/11/24 00:14:58;;;;;;;13.75;3.15;;;;;;;;;;7395249;19;20020;-74
2022/11/24 00:17:23;;;;;;;13.32;2.75;;;;;;;;;;7393031;19;20043;-74
2022/11/24 00:19:49;;;;;;;13.75;2.95;;;;;;;;;;7396868;19;20519;-75
2022/11/24 00:22:14;;;;;;;13.48;3.13;;;;;;;;;;7395340;19;19995;-75
2022/11/24 00:24:39;;;;;;;13.18;2.80;;;;;;;;;;7395655;19;20475;-75
2022/11/24 00:27:05;;;;;;;17.75;3.10;;;;;;;;;;7394117;19;20003;-75
2022/11/24 00:29:30;;;;;;;10.18;2.67;;;;;;;;;;7395221;19;20002;-75
2022/11/24 00:31:55;;;;;;;13.90;3.05;;;;;;;;;;7397091;19;19986;-75
2022/11/24 00:34:21;;;;;;;20.42;3.25;;;;;;;;;;7394985;19;20475;-75
2022/11/24 00:36:46;;;;;;;12.82;2.88;;;;;;;;;;7393294;19;20029;-75
2022/11/24 00:39:13;;;;;;;12.50;2.38;;;;;;;;;;7394290;19;19999;-75
2022/11/24 00:41:40;;;;;;;16.70;3.40;;;;;;;;;;7394416;19;20614;-75
2022/11/24 00:44:05;;;;;;;16.05;3.17;;;;;;;;;;7394483;19;20009;-75
2022/11/24 00:46:31;;;;;;;13.10;2.85;;;;;;;;;;7393394;19;19991;-75
2022/11/24 00:48:59;;;;;;;13.80;3.03;;;;;;;;;;7393921;19;20019;-75
2022/11/24 00:51:26;;;;;;;16.75;3.50;;;;;;;;;;7391975;19;20332;-75
2022/11/24 00:53:52;;;;;;;12.57;3.50;;;;;;;;;;7393865;19;20003;-75
2022/11/24 00:56:18;;;;;;;7.45;3.03;;;;;;;;;;7393487;19;20475;-75
2022/11/24 00:58:43;;;;;;;9.32;3.10;;;;;;;;;;7393536;19;19999;-75
2022/11/24 01:01:14;;;;;;;8.73;3.60;;;;;;;;;;7393798;19;20431;-75
2022/11/24 01:03:41;;;;;;;18.52;3.72;;;;;;;;;;7392398;19;20002;-75
2022/11/24 01:06:09;;;;;;;11.77;4.30;;;;;;;;;;7394046;19;20325;-75
2022/11/24 01:08:39;;;;;;;13.55;4.05;;;;;;;;;;7391001;19;20457;-75
2022/11/24 01:11:24;;;;;;;12.43;4.20;;;;;;;;;;7392702;19;19999;-75
2022/11/24 01:13:53;;;;;;;9.82;3.45;;;;;;;;;;7393492;19;19995;-76
2022/11/24 01:16:22;;;;;;;9.60;3.70;;;;;;;;;;7393147;19;20342;-76
2022/11/24 01:18:48;;;;;;;15.55;3.78;;;;;;;;;;7392124;19;20036;-76
2022/11/24 01:21:14;;;;;;;16.90;3.67;;;;;;;;;;7393665;19;20479;-76
2022/11/24 01:23:39;;;;;;;8.98;3.10;;;;;;;;;;7393253;19;20004;-76
2022/11/24 01:26:07;;;;;;;13.50;3.72;;;;;;;;;;7393515;19;19991;-76
2022/11/24 01:28:32;;;;;;;9.52;3.60;;;;;;;;;;7390807;19;19998;-76
2022/11/24 01:30:59;;;;;;;9.75;3.08;;;;;;;;;;7389617;19;20309;-76
2022/11/24 01:33:25;;;;;;;13.00;3.35;;;;;;;;;;7391226;19;19995;-76
2022/11/24 01:35:50;;;;;;;8.65;3.13;;;;;;;;;;7392601;19;20042;-76
2022/11/24 01:38:16;;;;;;;17.00;3.33;;;;;;;;;;7390227;19;20011;-75
2022/11/24 01:40:41;;;;;;;10.70;4.13;;;;;;;;;;7392605;19;20001;-75
2022/11/24 01:43:20;;;;;;;11.55;3.33;;;;;;;;;;7395555;19;20002;-75
2022/11/24 01:45:47;;;;;;;13.45;3.78;;;;;;;;;;7390645;19;20024;-75
2022/11/24 01:48:22;;;;;;;9.88;3.47;;;;;;;;;;7388084;19;20440;-76
2022/11/24 01:50:54;;;;;;;14.70;3.67;;;;;;;;;;7391960;19;20010;-75
2022/11/24 01:53:21;;;;;;;15.38;4.40;;;;;;;;;;7392275;19;19994;-75
2022/11/24 01:55:47;;;;;;;9.05;3.90;;;;;;;;;;7390695;19;20348;-75
2022/11/24 01:58:17;;;;;;;13.20;4.00;;;;;;;;;;7389998;19;20070;-75
2022/11/24 02:00:44;;;;;;;11.37;4.27;;;;;;;;;;7392403;19;20007;-75
2022/11/24 02:03:14;;;;;;;11.38;4.00;;;;;;;;;;7391538;19;19998;-75
2022/11/24 02:05:45;;;;;;;10.88;4.13;;;;;;;;;;7391866;19;19995;-75
2022/11/24 02:08:20;;;;;;;12.13;3.80;;;;;;;;;;7390349;19;20024;-75
2022/11/24 02:10:47;;;;;;;8.43;3.63;;;;;;;;;;7389465;19;20020;-76
2022/11/24 02:13:13;;;;;;;14.13;3.83;;;;;;;;;;7392021;19;20090;-75
2022/11/24 02:15:39;;;;;;;8.88;3.28;;;;;;;;;;7391068;19;20020;-75
2022/11/24 02:18:04;;;;;;;8.85;3.20;;;;;;;;;;7389202;19;20006;-76
2022/11/24 02:20:30;;;;;;;11.75;3.38;;;;;;;;;;7391259;19;19991;-75
2022/11/24 02:23:01;;;;;;;11.20;3.55;;;;;;;;;;7390988;19;20009;-75
2022/11/24 02:25:30;;;;;;;16.55;3.72;;;;;;;;;;7393160;19;20104;-75
2022/11/24 02:27:58;;;;;;;13.10;3.33;;;;;;;;;;7391221;19;20019;-75
2022/11/24 02:30:24;;;;;;;17.77;3.65;;;;;;;;;;7390847;19;20337;-76
2022/11/24 02:32:51;;;;;;;16.00;3.40;;;;;;;;;;7389297;19;20011;-75
2022/11/24 02:35:16;;;;;;;10.18;3.65;;;;;;;;;;7391139;19;20035;-75
2022/11/24 02:37:41;;;;;;;18.33;3.95;;;;;;;;;;7389012;19;20495;-76
2022/11/24 02:40:07;;;;;;;16.48;3.65;;;;;;;;;;7390869;19;20109;-75
2022/11/24 02:42:38;;;;;;;18.48;4.65;;;;;;;;;;7389983;19;20479;-75
2022/11/24 02:45:03;;;;;;;18.85;4.35;;;;;;;;;;7390339;19;20023;-76
2022/11/24 02:47:29;;;;;;;26.27;4.60;;;;;;;;;;7389154;19;20456;-75
2022/11/24 02:49:54;;;;;;;17.17;4.00;;;;;;;;;;7390322;19;20059;-75
2022/11/24 02:52:19;;;;;;;15.10;4.28;;;;;;;;;;7388099;19;20007;-75
2022/11/24 02:54:45;;;;;;;18.77;4.53;;;;;;;;;;7390849;19;19999;-75
2022/11/24 02:57:10;;;;;;;18.42;4.20;;;;;;;;;;7388836;19;20020;-75
2022/11/24 02:59:36;;;;;;;15.52;3.95;;;;;;;;;;7390032;19;19999;-76
2022/11/24 03:02:01;;;;;;;16.45;3.88;;;;;;;;;;7389978;19;20002;-76
2022/11/24 03:04:27;;;;;;;18.90;4.32;;;;;;;;;;7390273;19;20020;-76
2022/11/24 03:06:52;;;;;;;15.73;5.05;;;;;;;;;;7388602;19;20436;-75
2022/11/24 03:09:17;;;;;;;13.63;4.40;;;;;;;;;;7389931;19;20066;-76
2022/11/24 03:11:43;;;;;;;20.70;4.70;;;;;;;;;;7388680;19;20022;-75
2022/11/24 03:14:08;;;;;;;21.92;5.38;;;;;;;;;;7389687;19;20005;-75
2022/11/24 03:16:33;;;;;;;25.27;5.25;;;;;;;;;;7386681;19;20007;-75
2022/11/24 03:18:59;;;;;;;29.42;4.93;;;;;;;;;;7389316;19;20497;-76
2022/11/24 03:21:24;;;;;;;15.85;4.75;;;;;;;;;;7387556;19;20013;-75
2022/11/24 03:23:51;;;;;;;19.23;5.53;;;;;;;;;;7390831;19;20030;-75
2022/11/24 03:26:18;;;;;;;23.45;4.82;;;;;;;;;;7389281;19;20003;-75
2022/11/24 03:28:43;;;;;;;14.73;4.93;;;;;;;;;;7388853;19;20010;-76
2022/11/24 03:31:09;;;;;;;17.98;4.72;;;;;;;;;;7388676;19;20015;-75
2022/11/24 03:33:35;;;;;;;20.17;5.30;;;;;;;;;;7389160;19;20128;-76
2022/11/24 03:36:01;;;;;;;18.40;4.72;;;;;;;;;;7389246;19;20080;-75
2022/11/24 03:38:27;;;;;;;24.75;5.05;;;;;;;;;;7386472;19;20027;-75
2022/11/24 03:40:52;;;;;;;20.83;5.22;;;;;;;;;;7389134;19;20035;-75
2022/11/24 03:43:18;;;;;;;17.88;4.95;;;;;;;;;;7391267;19;20399;-76
2022/11/24 03:45:47;;;;;;;26.05;5.15;;;;;;;;;;7388658;19;20363;-75
2022/11/24 03:48:13;;;;;;;21.30;4.95;;;;;;;;;;7386388;19;20106;-74
2022/11/24 03:50:39;;;;;;;24.13;6.18;;;;;;;;;;7388531;19;20029;-74
2022/11/24 03:53:04;;;;;;;17.20;5.18;;;;;;;;;;7388661;19;20011;-74
2022/11/24 03:55:29;;;;;;;20.30;5.75;;;;;;;;;;7392935;19;19991;-74
2022/11/24 03:57:55;;;;;;;17.63;5.05;;;;;;;;;;7393470;19;19994;-75
2022/11/24 04:00:20;;;;;;;18.85;5.13;;;;;;;;;;7395602;19;20028;-75
2022/11/24 04:02:47;;;;;;;16.60;5.32;;;;;;;;;;7393904;19;20058;-76
2022/11/24 04:05:12;;;;;;;15.60;5.10;;;;;;;;;;7395407;19;20054;-75
2022/11/24 04:07:37;;;;;;;22.83;5.53;;;;;;;;;;7393735;19;20029;-75
2022/11/24 04:10:03;;;;;;;21.95;5.40;;;;;;;;;;7394243;19;19994;-75
2022/11/24 04:12:43;;;;;;;23.17;4.88;;;;;;;;;;7393917;19;20033;-76
2022/11/24 04:15:14;;;;;;;19.77;5.03;;;;;;;;;;7395582;19;20001;-75
2022/11/24 04:17:39;;;;;;;26.60;5.60;;;;;;;;;;7393546;19;20007;-76
2022/11/24 04:20:05;;;;;;;20.92;5.40;;;;;;;;;;7395154;19;21074;-76
2022/11/24 04:22:30;;;;;;;21.38;6.07;;;;;;;;;;7395559;19;20014;-75
2022/11/24 04:24:56;;;;;;;21.55;5.60;;;;;;;;;;7393906;19;19991;-76
2022/11/24 04:27:21;;;;;;;16.23;5.75;;;;;;;;;;7393289;19;20002;-75
2022/11/24 04:29:47;;;;;;;31.08;5.90;;;;;;;;;;7393427;19;19995;-76
2022/11/24 04:32:12;;;;;;;18.45;5.72;;;;;;;;;;7396852;19;19998;-75
2022/11/24 04:34:37;;;;;;;17.10;5.30;;;;;;;;;;7394745;19;19998;-75
2022/11/24 04:37:03;;;;;;;17.92;6.85;;;;;;;;;;7392228;19;19991;-75
2022/11/24 04:39:28;;;;;;;22.92;6.28;;;;;;;;;;7394378;19;19998;-76
2022/11/24 04:41:53;;;;;;;18.02;6.22;;;;;;;;;;7394560;19;20019;-75
2022/11/24 04:44:19;;;;;;;17.48;6.85;;;;;;;;;;7393460;19;19994;-75
2022/11/24 04:46:44;;;;;;;21.08;6.50;;;;;;;;;;7391458;19;20010;-75
2022/11/24 04:49:10;;;;;;;18.40;6.60;;;;;;;;;;7393997;19;20007;-75
2022/11/24 04:51:37;;;;;;;19.70;6.25;;;;;;;;;;7393232;19;19994;-75
2022/11/24 04:54:03;;;;;;;27.05;6.82;;;;;;;;;;7394377;19;19994;-75
2022/11/24 04:56:28;;;;;;;11.60;5.72;;;;;;;;;;7393124;19;20123;-76
2022/11/24 04:58:54;;;;;;;21.58;6.15;;;;;;;;;;7393831;19;20098;-75
2022/11/24 05:01:19;;;;;;;21.25;5.20;;;;;;;;;;7394188;19;19994;-76
2022/11/24 05:03:44;;;;;;;19.02;5.18;;;;;;;;;;7393688;19;20005;-75
2022/11/24 05:06:10;;;;;;;19.58;5.22;;;;;;;;;;7393363;19;19995;-76
2022/11/24 05:08:35;;;;;;;19.45;5.32;;;;;;;;;;7391624;19;20006;-75
2022/11/24 05:11:05;;;;;;;24.15;5.25;;;;;;;;;;7393802;19;20008;-75
2022/11/24 05:13:31;;;;;;;18.98;5.47;;;;;;;;;;7393411;19;19998;-75
2022/11/24 05:15:58;;;;;;;20.15;5.00;;;;;;;;;;7393374;19;20006;-75
2022/11/24 05:18:24;;;;;;;19.65;5.63;;;;;;;;;;7391481;19;20029;-75
2022/11/24 05:20:49;;;;;;;19.33;5.20;;;;;;;;;;7393882;19;20640;-75
2022/11/24 05:23:15;;;;;;;23.75;4.40;;;;;;;;;;7393421;19;20004;-75
2022/11/24 05:25:40;;;;;;;13.50;4.03;;;;;;;;;;7397452;19;20002;-75
2022/11/24 05:28:10;;;;;;;18.15;5.05;;;;;;;;;;7390988;19;20449;-75
2022/11/24 05:30:37;;;;;;;24.73;5.68;;;;;;;;;;7391188;19;20019;-76
2022/11/24 05:33:08;;;;;;;16.10;5.60;;;;;;;;;;7388302;19;20381;-75
2022/11/24 05:35:35;;;;;;;19.55;4.45;;;;;;;;;;7388140;19;20062;-75
2022/11/24 05:38:00;;;;;;;18.55;5.90;;;;;;;;;;7390207;19;19998;-75
2022/11/24 05:40:26;;;;;;;15.82;4.53;;;;;;;;;;7392611;19;20090;-75
2022/11/24 05:42:51;;;;;;;13.20;4.70;;;;;;;;;;7392534;19;20014;-75
2022/11/24 05:45:19;;;;;;;19.17;5.07;;;;;;;;;;7396551;19;20002;-76
2022/11/24 05:47:45;;;;;;;19.70;4.50;;;;;;;;;;7393482;19;19995;-76
2022/11/24 05:50:12;;;;;;;18.52;4.93;;;;;;;;;;7394619;19;20093;-76
2022/11/24 05:52:37;;;;;;;21.00;4.55;;;;;;;;;;7394895;19;19999;-76
2022/11/24 05:55:04;;;;;;;20.95;4.95;;;;;;;;;;7396206;19;20002;-76
2022/11/24 05:57:30;;;;;;;21.45;5.05;;;;;;;;;;7388334;19;20020;-76
2022/11/24 05:59:55;;;;;;;14.65;5.13;;;;;;;;;;7387114;19;20015;-76
2022/11/24 06:02:21;;;;;;;14.15;4.38;;;;;;;;;;7391748;19;20256;-75
2022/11/24 06:04:46;;;;;;;21.08;4.72;;;;;;;;;;7386144;19;20014;-76
2022/11/24 06:07:11;;;;;;;16.10;4.50;;;;;;;;;;7390816;19;20058;-76
2022/11/24 06:09:38;;;;;;;21.65;4.82;;;;;;;;;;7388452;19;20002;-75
2022/11/24 06:12:06;;;;;;;18.27;4.18;;;;;;;;;;7388010;19;20007;-75
2022/11/24 06:14:31;;;;;;;14.57;4.45;;;;;;;;;;7390542;19;20003;-76
2022/11/24 06:16:57;;;;;;;16.15;4.32;;;;;;;;;;7385665;19;20024;-76
2022/11/24 06:19:22;;;;;;;18.05;4.68;;;;;;;;;;7387455;19;20002;-75
2022/11/24 06:21:47;;;;;;;30.73;4.68;;;;;;;;;;7387358;19;20330;-74
2022/11/24 06:24:13;;;;;;;28.95;4.20;;;;;;;;;;7389144;19;20575;-75
2022/11/24 06:26:39;;;;;;;21.30;4.68;;;;;;;;;;7389841;19;20002;-75
2022/11/24 06:29:04;;;;;;;20.05;4.50;;;;;;;;;;7391085;19;20106;-76
2022/11/24 06:31:30;;;;;;;20.95;4.25;;;;;;;;;;7387146;19;21354;-76
2022/11/24 06:33:55;;;;;;;18.50;4.95;;;;;;;;;;7389164;19;20076;-76
2022/11/24 06:36:20;;;;;;;29.77;5.03;;;;;;;;;;7389551;19;20388;-76
2022/11/24 06:38:46;;;;;;;15.52;4.55;;;;;;;;;;7389908;19;19994;-76
2022/11/24 06:41:13;;;;;;;13.85;4.13;;;;;;;;;;7390324;19;20038;-75
2022/11/24 06:43:39;;;;;;;12.23;4.20;;;;;;;;;;7388821;19;19998;-75
2022/11/24 06:46:05;;;;;;;19.17;4.10;;;;;;;;;;7385286;19;20002;-76
2022/11/24 06:48:31;;;;;;;26.60;5.20;;;;;;;;;;7385145;19;20011;-75
2022/11/24 06:51:01;;;;;;;20.58;5.07;;;;;;;;;;7388475;19;20020;-75
2022/11/24 06:53:29;;;;;;;17.48;5.43;;;;;;;;;;7386402;19;19998;-75
2022/11/24 06:55:58;;;;;;;18.05;5.22;;;;;;;;;;7386612;19;19999;-75
2022/11/24 06:58:23;;;;;;;19.90;5.65;;;;;;;;;;7382871;19;20018;-75
2022/11/24 07:00:48;;;;;;;19.05;5.40;;;;;;;;;;7384170;19;20071;-76
2022/11/24 07:03:15;;;;;;;19.88;5.30;;;;;;;;;;7380159;19;20679;-75
2022/11/24 07:05:42;;;;;;;17.73;4.68;;;;;;;;;;7377715;19;19999;-75
2022/11/24 07:08:08;;;;;;;22.02;4.65;;;;;;;;;;7378201;19;20002;-75
2022/11/24 07:10:33;;;;;;;14.63;4.28;;;;;;;;;;7381534;19;20434;-75
2022/11/24 07:12:58;;;;;;;18.02;3.78;;;;;;;;;;7380253;19;19998;-75
2022/11/24 07:15:24;;;;;;;19.83;4.15;;;;;;;;;;7385524;19;20062;-75
2022/11/24 07:17:49;;;;;;;20.38;4.47;;;;;;;;;;7384545;19;19995;-75
2022/11/24 07:20:15;;;;;;;16.58;3.67;;;;;;;;;;7388863;19;19987;-75
2022/11/24 07:22:40;;;;;;;15.98;4.40;;;;;;;;;;7389525;19;19999;-75
2022/11/24 07:25:08;;;;;;;18.30;4.30;;;;;;;;;;7389115;19;20021;-76
2022/11/24 07:27:34;;;;;;;14.02;3.78;;;;;;;;;;7386191;19;20062;-76
2022/11/24 07:29:59;;;;;;;17.90;4.53;;;;;;;;;;7393427;19;20003;-75
2022/11/24 07:32:24;;;;;;;18.20;4.57;;;;;;;;;;7394035;19;19999;-76
2022/11/24 07:34:50;;;;;;;16.52;4.05;;;;;;;;;;7395331;19;19991;-76
2022/11/24 07:37:15;;;;;;;18.35;4.95;;;;;;;;;;7396655;19;19995;-77
2022/11/24 07:39:40;;;;;;;19.85;4.38;;;;;;;;;;7395847;19;20006;-76
2022/11/24 07:42:07;;;;;;;15.45;4.20;;;;;;;;;;7394973;19;19994;-75
2022/11/24 07:44:32;;;;;;;15.27;3.60;;;;;;;;;;7394797;19;20327;-75
2022/11/24 07:46:58;;;;;;;11.38;3.53;;;;;;;;;;7394175;19;20035;-76
2022/11/24 07:49:23;;;;;;;13.75;3.25;;;;;;;;;;7396276;19;20005;-76
2022/11/24 07:51:49;;;;;;;13.73;3.28;;;;;;;;;;7393003;19;19999;-76
2022/11/24 07:54:14;;;;;;;13.40;3.35;;;;;;;;;;7394243;19;20289;-76
2022/11/24 07:56:40;;;;;;;18.15;3.65;;;;;;;;;;7394469;19;20006;-76
2022/11/24 07:59:05;;;;;;;16.02;3.03;;;;;;;;;;7394974;19;20475;-76
2022/11/24 08:01:30;;;;;;;12.40;3.15;;;;;;;;;;7395505;19;20674;-76
2022/11/24 08:03:56;;;;;;;13.30;3.33;;;;;;;;;;7396432;19;20022;-76
2022/11/24 08:06:21;;;;;;;19.17;5.43;;;;;;;;;;7396109;19;20002;-75
2022/11/24 08:08:46;;;;;;;13.35;3.70;;;;;;;;;;7395691;19;20006;-76
2022/11/24 08:11:15;;;;;;;14.40;3.90;;;;;;;;;;7395371;19;20667;-76
2022/11/24 08:13:40;;;;;;;14.65;3.95;;;;;;;;;;7393426;19;20003;-76
2022/11/24 08:16:08;;;;;;;15.55;5.15;;;;;;;;;;7393914;19;20062;-75
2022/11/24 08:18:35;;;;;;;11.40;3.90;;;;;;;;;;7391118;19;20025;-75
2022/11/24 08:21:00;;;;;;;14.20;3.88;;;;;;;;;;7395672;19;20010;-75
2022/11/24 08:23:26;;;;;;;9.95;2.92;;;;;;;;;;7392038;19;20005;-70
2022/11/24 08:25:53;;;;;;;9.13;2.67;;;;;;;;;;7393055;19;20451;-70
2022/11/24 08:28:19;;;;;;;9.80;2.90;;;;;;;;;;7390224;19;20006;-75
2022/11/24 08:30:44;;;;;;;12.80;2.90;;;;;;;;;;7392456;19;20035;-75
2022/11/24 08:33:09;;;;;;;11.48;3.20;;;;;;;;;;7389016;19;20331;-75
2022/11/24 08:35:36;;;;;;;12.18;3.58;;;;;;;;;;7389234;19;19998;-75
2022/11/24 08:38:02;;;;;;;14.55;2.78;;;;;;;;;;7388647;19;20006;-75
2022/11/24 08:40:28;;;;;;;9.52;2.45;;;;;;;;;;7391872;19;20051;-75
2022/11/24 08:43:00;;;;;;;7.07;2.13;;;;;;;;;;7392863;19;20781;-75
2022/11/24 08:45:26;;;;;;;8.57;2.05;;;;;;;;;;7390133;19;20105;-75
2022/11/24 08:47:53;;;;;;;10.00;2.80;;;;;;;;;;7386840;19;20500;-75
2022/11/24 08:50:18;;;;;;;8.27;2.40;;;;;;;;;;7393692;19;19998;-75
2022/11/24 08:52:44;;;;;;;9.68;2.47;;;;;;;;;;7391387;19;20341;-75
2022/11/24 08:55:10;;;;;;;10.73;2.55;;;;;;;;;;7393437;19;20332;-75
2022/11/24 08:57:35;;;;;;;6.47;2.17;;;;;;;;;;7392572;19;19999;-74
2022/11/24 09:00:02;;;;;;;8.68;2.97;;;;;;;;;;7392585;19;20376;-75
2022/11/24 09:02:27;;;;;;;8.25;2.30;;;;;;;;;;7391892;19;19999;-75
2022/11/24 09:04:52;;;;;;;6.50;2.38;;;;;;;;;;7391783;19;20540;-75
2022/11/24 09:07:17;;;;;;;8.23;2.53;;;;;;;;;;7390815;19;20003;-75
2022/11/24 09:09:43;;;;;;;7.10;2.08;;;;;;;;;;7391794;19;19999;-74
2022/11/24 09:12:08;;;;;;;12.20;2.97;;;;;;;;;;7390763;19;20351;-74
2022/11/24 09:14:34;;;;;;;7.15;2.55;;;;;;;;;;7392831;19;20007;-74
2022/11/24 09:16:59;;;;;;;9.85;2.60;;;;;;;;;;7392606;19;19999;-75
2022/11/24 09:19:25;;;;;;;9.57;2.58;;;;;;;;;;7390890;19;20002;-75
2022/11/24 09:21:50;;;;;;;8.73;2.22;;;;;;;;;;7391101;19;20058;-75
2022/11/24 09:24:16;;;;;;;10.10;2.72;;;;;;;;;;7389040;19;20014;-75
2022/11/24 09:26:41;;;;;;;9.65;2.47;;;;;;;;;;7391927;19;19999;-75
2022/11/24 09:29:08;;;;;;;8.93;2.40;;;;;;;;;;7393583;19;20028;-74
2022/11/24 09:31:35;;;;;;;7.22;2.15;;;;;;;;;;7388670;19;20079;-75
2022/11/24 09:34:03;;;;;;;9.82;2.35;;;;;;;;;;7391516;19;19995;-75
2022/11/24 09:36:28;;;;;;;9.32;2.33;;;;;;;;;;7391739;19;20006;-75
2022/11/24 09:38:53;;;;;;;8.80;2.67;;;;;;;;;;7393278;19;19995;-75
2022/11/24 09:41:28;;;;;;;15.02;3.03;;;;;;;;;;7390879;19;20038;-75
2022/11/24 09:43:58;;;;;;;8.40;1.92;;;;;;;;;;7390621;19;20377;-75
2022/11/24 09:46:43;;;;;;;8.55;2.15;;;;;;;;;;7390904;19;20001;-75
2022/11/24 09:49:21;;;;;;;6.53;2.00;;;;;;;;;;7392593;19;20154;-75
2022/11/24 09:51:48;;;;;;;9.40;1.90;;;;;;;;;;7387032;19;20000;-75
2022/11/24 09:54:21;;;;;;;7.05;2.00;;;;;;;;;;7390826;19;20002;-75
2022/11/24 09:56:47;;;;;;;9.10;2.22;;;;;;;;;;7391053;19;20002;-75
2022/11/24 09:59:15;;;;;;;10.88;2.00;;;;;;;;;;7392472;19;20465;-75
2022/11/24 10:01:42;;;;;;;11.55;2.25;;;;;;;;;;7389934;19;19998;-75
2022/11/24 10:04:15;;;;;;;10.57;2.30;;;;;;;;;;7390784;19;20246;-74
2022/11/24 10:07:02;;;;;;;12.77;2.35;;;;;;;;;;7390930;19;20006;-75
2022/11/24 10:10:01;;;;;;;14.50;2.40;;;;;;;;;;7392297;19;20301;-74
2022/11/24 10:13:00;;;;;;;9.35;2.10;;;;;;;;;;7389033;19;19995;-73
2022/11/24 10:15:52;;;;;;;8.07;2.05;;;;;;;;;;7389660;19;20333;-74
2022/11/24 10:18:37;;;;;;;;;;;;;;;;;;7387606;19;19999;-74
2022/11/24 10:21:23;;;;;;;8.63;1.80;;;;;;;;;;7390595;19;20582;-74
2022/11/24 10:24:12;;;;;;;10.68;1.85;;;;;;;;;;7389840;19;20006;-74
2022/11/24 10:26:41;;;;;;;8.13;1.90;;;;;;;;;;7390605;19;19998;-74
2022/11/24 10:29:24;;;;;;;5.97;1.90;;;;;;;;;;7392489;19;20013;-74
2022/11/24 10:31:53;;;;;;;10.20;2.10;;;;;;;;;;7390461;19;19994;-75
2022/11/24 10:34:27;;;;;;;7.13;1.83;;;;;;;;;;7391038;19;20464;-75
2022/11/24 10:37:00;;;;;;;7.90;2.03;;;;;;;;;;7390522;19;20011;-74
2022/11/24 10:39:40;;;;;;;10.65;2.60;;;;;;;;;;7389191;19;20010;-75
2022/11/24 10:42:18;;;;;;;11.38;2.33;;;;;;;;;;7388274;19;20066;-74
2022/11/24 10:44:44;;;;;;;9.20;1.88;;;;;;;;;;7391075;19;20002;-74
2022/11/24 10:47:29;;;;;;;8.20;2.08;;;;;;;;;;7390100;19;20005;-74
2022/11/24 10:50:23;;;;;;;6.68;1.83;;;;;;;;;;7387692;19;19999;-74
2022/11/24 10:53:07;;;;;;;7.95;1.92;;;;;;;;;;7388689;19;19999;-74
2022/11/24 10:55:54;;;;;;;5.53;1.70;;;;;;;;;;7389012;19;20019;-74
2022/11/24 10:58:39;;;;;;;7.45;2.20;;;;;;;;;;7387612;19;19991;-75
2022/11/24 11:01:13;;;;;;;6.10;1.98;;;;;;;;;;7347529;19;20118;-73
2022/11/24 11:03:54;;;;;;;8.57;1.95;;;;;;;;;;7392076;19;20002;-74
2022/11/24 11:06:30;;;;;;;10.60;1.92;;;;;;;;;;7393305;19;20076;-74
2022/11/24 11:09:04;;;;;;;6.38;1.55;;;;;;;;;;7395312;19;20495;-74
2022/11/24 11:11:30;;;;;;;5.60;1.88;;;;;;;;;;7392718;19;20002;-73
2022/11/24 11:14:01;;;;;;;6.10;1.52;;;;;;;;;;7396363;19;20018;-73
2022/11/24 11:16:31;;;;;;;10.38;1.67;;;;;;;;;;7395504;19;20002;-73
2022/11/24 11:18:56;;;;;;;9.60;2.00;;;;;;;;;;7398346;19;20027;-73
2022/11/24 11:21:27;;;;;;;6.57;1.70;;;;;;;;;;7394578;19;19998;-74
2022/11/24 11:23:53;;;;;;;6.97;1.98;;;;;;;;;;7397354;19;20080;-76
2022/11/24 11:26:26;;;;;;;6.85;1.42;;;;;;;;;;7395446;19;20006;-74
2022/11/24 11:29:06;;;;;;;8.32;1.60;;;;;;;;;;7397436;19;19999;-75
2022/11/24 11:31:35;;;;;;;9.43;1.95;;;;;;;;;;7393926;19;20002;-75
2022/11/24 11:34:13;;;;;;;7.15;1.40;;;;;;;;;;7393919;19;19997;-75
2022/11/24 11:36:45;;;;;;;9.25;1.92;;;;;;;;;;7395429;19;20487;-74
2022/11/24 11:39:31;;;;;;;8.13;1.80;;;;;;;;;;7397775;19;20008;-75
2022/11/24 11:42:24;;;;;;;10.30;1.70;;;;;;;;;;7394729;19;20464;-75
2022/11/24 11:44:58;;;;;;;4.85;1.60;;;;;;;;;;7396529;19;20013;-75
2022/11/24 11:47:28;;;;;;;6.38;1.90;;;;;;;;;;7391602;19;20006;-74
2022/11/24 11:49:54;;;;;;;9.65;1.80;;;;;;;;;;7394992;19;20006;-75
2022/11/24 11:52:31;;;;;;;6.50;1.45;;;;;;;;;;7393767;19;20001;-75
2022/11/24 11:55:19;;;;;;;8.90;1.70;;;;;;;;;;7396475;19;20330;-76
2022/11/24 11:57:54;;;;;;;6.72;1.63;;;;;;;;;;7390065;19;20036;-74
2022/11/24 12:00:21;;;;;;;7.82;1.42;;;;;;;;;;7393804;19;20037;-75
2022/11/24 12:02:46;;;;;;;6.03;1.30;;;;;;;;;;7396210;19;20002;-75
2022/11/24 12:05:28;;;;;;;7.50;2.07;;;;;;;;;;7396718;19;20007;-75
2022/11/24 12:07:56;;;;;;;6.18;1.35;;;;;;;;;;7391696;19;20276;-75
2022/11/24 12:10:34;;;;;;;6.55;1.52;;;;;;;;;;7395122;19;20002;-75
2022/11/24 12:13:05;;;;;;;7.10;1.67;;;;;;;;;;7393212;19;20003;-75
2022/11/24 12:15:43;;;;;;;6.63;1.45;;;;;;;;;;7391088;19;20002;-75
2022/11/24 12:18:47;;;;;;;9.73;1.45;;;;;;;;;;7390478;19;19999;-75
2022/11/24 12:21:25;;;;;;;5.80;1.42;;;;;;;;;;7390162;19;19998;-75
2022/11/24 12:23:56;;;;;;;4.47;1.42;;;;;;;;;;7394883;19;20002;-75
2022/11/24 12:26:38;;;;;;;6.23;2.07;;;;;;;;;;7394483;19;20019;-74
2022/11/24 12:29:28;;;;;;;5.18;1.38;;;;;;;;;;7392840;19;19998;-74
2022/11/24 12:32:21;;;;;;;6.22;1.40;;;;;;;;;;7393230;19;20711;-74
2022/11/24 12:35:22;;;;;;;8.50;1.70;;;;;;;;;;7395992;19;19998;-74
2022/11/24 12:37:53;;;;;;;7.07;2.00;;;;;;;;;;7391820;19;20010;-74
2022/11/24 12:40:27;;;;;;;4.60;1.38;;;;;;;;;;7394987;19;20005;-74
2022/11/24 12:43:29;;;;;;;5.18;1.77;;;;;;;;;;7396379;19;20002;-74
2022/11/24 12:46:12;;;;;;;11.32;1.70;;;;;;;;;;7393416;19;19991;-74
2022/11/24 12:49:14;;;;;;;3.58;1.30;;;;;;;;;;7390550;19;19998;-74
2022/11/24 12:51:43;;;;;;;7.32;1.65;;;;;;;;;;7390963;19;20074;-75
2022/11/24 12:54:16;;;;;;;5.53;1.58;;;;;;;;;;7394289;19;20058;-74
2022/11/24 12:56:52;;;;;;;6.78;1.65;;;;;;;;;;7393856;19;20095;-74
2022/11/24 12:59:53;;;;;;;5.68;1.23;;;;;;;;;;7392836;19;20012;-74
2022/11/24 13:02:46;;;;;;;8.85;1.70;;;;;;;;;;7393201;19;20017;-75
2022/11/24 13:05:27;;;;;;;5.45;1.60;;;;;;;;;;7394089;19;20091;-74
2022/11/24 13:07:58;;;;;;;5.13;1.60;;;;;;;;;;7391021;19;20010;-74
2022/11/24 13:10:23;;;;;;;4.60;1.20;;;;;;;;;;7394178;19;19994;-75
2022/11/24 13:13:06;;;;;;;5.45;1.70;;;;;;;;;;7391482;19;20023;-74
2022/11/24 13:15:51;;;;;;;8.85;1.75;;;;;;;;;;7392350;19;19999;-74
2022/11/24 13:18:56;;;;;;;5.50;1.70;;;;;;;;;;7391386;19;20531;-74
2022/11/24 13:21:48;;;;;;;6.65;1.63;;;;;;;;;;7391306;19;20009;-74
2022/11/24 13:24:17;;;;;;;9.05;1.83;;;;;;;;;;7393037;19;20515;-74
2022/11/24 13:26:42;;;;;;;6.25;1.98;;;;;;;;;;7392262;19;20073;-75
2022/11/24 13:29:29;;;;;;;7.68;1.45;;;;;;;;;;7390895;19;20645;-74
2022/11/24 13:32:16;;;;;;;6.43;1.63;;;;;;;;;;7391047;19;19995;-74
2022/11/24 13:34:41;;;;;;;10.25;1.45;;;;;;;;;;7391154;19;19999;-74
2022/11/24 13:37:25;;;;;;;4.85;1.40;;;;;;;;;;7392084;19;20003;-75
2022/11/24 13:39:54;;;;;;;7.18;1.65;;;;;;;;;;7391669;19;20026;-74
2022/11/24 13:42:24;;;;;;;6.88;1.75;;;;;;;;;;7392799;19;20005;-75
2022/11/24 13:45:03;;;;;;;5.25;1.55;;;;;;;;;;7393557;19;20443;-73
2022/11/24 13:47:39;;;;;;;6.43;1.38;;;;;;;;;;7386944;19;20006;-72
2022/11/24 13:50:13;;;;;;;10.35;1.83;;;;;;;;;;7390840;19;20027;-76
2022/11/24 13:52:39;;;;;;;8.00;1.85;;;;;;;;;;7390897;19;20007;-74
2022/11/24 13:55:10;;;;;;;6.75;1.40;;;;;;;;;;7392982;19;20009;-74
2022/11/24 13:57:41;;;;;;;6.03;1.50;;;;;;;;;;7382107;19;20103;-74
2022/11/24 14:00:21;;;;;;;;;;;;;;;;;;7392825;19;20468;-74
2022/11/24 14:02:47;;;;;;;9.90;1.80;;;;;;;;;;7392269;19;19986;-74
2022/11/24 14:05:16;;;;;;;6.38;1.65;;;;;;;;;;7388450;19;19995;-74
2022/11/24 14:07:44;;;;;;;8.57;1.65;;;;;;;;;;7390332;19;20023;-74
2022/11/24 14:10:20;;;;;;;7.10;1.95;;;;;;;;;;7390893;19;20013;-74
2022/11/24 14:12:45;;;;;;;12.32;2.00;;;;;;;;;;7390004;19;20678;-74
2022/11/24 14:15:24;;;;;;;5.65;1.92;;;;;;;;;;7386786;19;19994;-74
2022/11/24 14:17:50;;;;;;;12.02;2.00;;;;;;;;;;7388090;19;20006;-74
2022/11/24 14:20:22;;;;;;;5.15;1.75;;;;;;;;;;7390968;19;19998;-74
2022/11/24 14:22:47;;;;;;;6.50;1.73;;;;;;;;;;7391465;19;19994;-75
2022/11/24 14:25:26;;;;;;;11.10;1.75;;;;;;;;;;7387344;19;20001;-74
2022/11/24 14:27:52;;;;;;;9.07;2.03;;;;;;;;;;7386675;19;20014;-74
2022/11/24 14:30:21;;;;;;;6.78;1.70;;;;;;;;;;7390545;19;20465;-74
2022/11/24 14:32:54;;;;;;;7.78;1.63;;;;;;;;;;7390350;19;20003;-74
2022/11/24 14:35:31;;;;;;;8.10;1.83;;;;;;;;;;7388726;19;20041;-74
2022/11/24 14:37:58;;;;;;;7.28;1.50;;;;;;;;;;7386643;19;20006;-74
2022/11/24 14:40:44;;;;;;;5.45;2.00;;;;;;;;;;7391373;19;20360;-74
2022/11/24 14:43:36;;;;;;;8.40;1.92;;;;;;;;;;7388104;19;20013;-74
2022/11/24 14:46:03;;;;;;;;;;;;;;;;;;7390136;19;20058;-73
2022/11/24 14:48:46;;;;;;;8.68;1.70;;;;;;;;;;7388620;19;20016;-73
2022/11/24 14:51:24;;;;;;;8.75;2.42;;;;;;;;;;7388255;19;20459;-74